createdAt,value
2022-11-14T00:00:43.679Z,6.00
2022-11-14T00:03:12.111Z,5.40
2022-11-14T00:05:42.083Z,6.47
2022-11-14T00:08:16.429Z,5.57
2022-11-14T00:10:46.392Z,5.30
2022-11-14T00:13:16.575Z,6.10
2022-11-14T00:15:45.204Z,5.60
2022-11-14T00:18:13.046Z,6.87
2022-11-14T00:20:40.859Z,5.50
2022-11-14T00:23:08.730Z,6.47
2022-11-14T00:25:36.532Z,6.40
2022-11-14T00:28:04.387Z,6.87
2022-11-14T00:30:33.537Z,5.23
2022-11-14T00:33:01.351Z,5.80
2022-11-14T00:35:29.166Z,5.87
2022-11-14T00:37:57.019Z,5.77
2022-11-14T00:40:24.873Z,5.10
2022-11-14T00:42:52.727Z,5.00
2022-11-14T00:45:20.687Z,5.73
2022-11-14T00:47:49.881Z,5.60
2022-11-14T00:50:18.096Z,5.90
2022-11-14T00:52:45.929Z,6.13
2022-11-14T00:55:13.750Z,5.03
2022-11-14T00:57:41.624Z,5.20
2022-11-14T01:00:11.232Z,5.10
2022-11-14T01:02:39.029Z,6.37
2022-11-14T01:05:08.707Z,5.70
2022-11-14T01:07:36.567Z,5.83
2022-11-14T01:10:04.700Z,5.40
2022-11-14T01:12:32.521Z,5.67
2022-11-14T01:15:00.379Z,6.20
2022-11-14T01:17:28.600Z,5.53
2022-11-14T01:19:56.453Z,5.70
2022-11-14T01:22:25.663Z,5.03
2022-11-14T01:24:55.125Z,5.57
2022-11-14T01:27:23.048Z,5.67
2022-11-14T01:29:50.927Z,5.50
2022-11-14T01:32:18.773Z,5.53
2022-11-14T01:34:47.679Z,5.40
2022-11-14T01:37:15.539Z,5.40
2022-11-14T01:39:44.733Z,6.10
2022-11-14T01:42:12.551Z,5.53
2022-11-14T01:44:46.732Z,6.23
2022-11-14T01:47:17.852Z,5.23
2022-11-14T01:49:48.485Z,6.27
2022-11-14T01:52:19.095Z,5.70
2022-11-14T01:54:52.623Z,5.03
2022-11-14T01:57:24.832Z,5.40
2022-11-14T01:59:56.598Z,5.80
2022-11-14T02:02:26.559Z,5.80
2022-11-14T02:04:58.364Z,5.63
2022-11-14T02:07:28.538Z,5.70
2022-11-14T02:09:58.289Z,5.47
2022-11-14T02:12:26.313Z,10.10
2022-11-14T02:14:58.094Z,5.13
2022-11-14T02:17:30.196Z,5.40
2022-11-14T02:20:07.294Z,5.67
2022-11-14T02:22:35.163Z,5.47
2022-11-14T02:25:03.421Z,4.97
2022-11-14T02:27:32.468Z,5.17
2022-11-14T02:30:06.303Z,5.13
2022-11-14T02:32:56.896Z,5.80
2022-11-14T02:35:23.284Z,6.00
2022-11-14T02:37:51.128Z,5.43
2022-11-14T02:40:19.191Z,5.97
2022-11-14T02:42:47.061Z,5.57
2022-11-14T02:45:15.145Z,6.40
2022-11-14T02:47:42.972Z,5.00
2022-11-14T02:50:11.212Z,6.00
2022-11-14T02:52:40.383Z,5.60
2022-11-14T02:55:08.866Z,5.17
2022-11-14T02:57:36.980Z,5.33
2022-11-14T03:00:08.806Z,4.77
2022-11-14T03:02:39.657Z,5.43
2022-11-14T03:05:07.972Z,5.90
2022-11-14T03:07:35.892Z,4.50
2022-11-14T03:10:06.151Z,5.73
2022-11-14T03:12:34.002Z,5.50
2022-11-14T03:15:02.076Z,5.03
2022-11-14T03:17:32.530Z,4.93
2022-11-14T03:20:00.671Z,6.10
2022-11-14T03:22:28.931Z,5.90
2022-11-14T03:24:56.821Z,5.37
2022-11-14T03:27:26.176Z,5.57
2022-11-14T03:29:54.026Z,5.00
2022-11-14T03:32:21.875Z,6.93
2022-11-14T03:34:49.724Z,5.57
2022-11-14T03:37:17.605Z,5.13
2022-11-14T03:39:45.465Z,5.30
2022-11-14T03:42:13.318Z,5.43
2022-11-14T03:44:42.670Z,5.43
2022-11-14T03:47:10.489Z,5.50
2022-11-14T03:49:38.329Z,4.97
2022-11-14T03:52:06.259Z,5.23
2022-11-14T03:54:34.136Z,6.07
2022-11-14T03:57:01.967Z,4.50
2022-11-14T03:59:29.803Z,5.20
2022-11-14T04:01:58.999Z,6.13
2022-11-14T04:04:26.819Z,5.83
2022-11-14T04:06:54.674Z,4.60
2022-11-14T04:09:22.529Z,5.67
2022-11-14T04:11:50.381Z,5.40
2022-11-14T04:14:18.227Z,5.30
2022-11-14T04:16:46.065Z,5.33
2022-11-14T04:19:15.263Z,5.20
2022-11-14T04:21:43.107Z,5.50
2022-11-14T04:24:11.391Z,5.03
2022-11-14T04:26:39.357Z,5.53
2022-11-14T04:29:07.180Z,7.93
2022-11-14T04:31:34.996Z,4.40
2022-11-14T04:34:02.991Z,5.53
2022-11-14T04:36:32.240Z,5.47
2022-11-14T04:39:00.124Z,6.13
2022-11-14T04:41:28.260Z,6.70
2022-11-14T04:43:56.111Z,5.43
2022-11-14T04:46:24.003Z,5.30
2022-11-14T04:48:51.816Z,6.73
2022-11-14T04:51:19.673Z,5.20
2022-11-14T04:53:48.840Z,4.90
2022-11-14T04:56:16.699Z,5.03
2022-11-14T04:58:44.536Z,5.30
2022-11-14T05:01:14.513Z,5.10
2022-11-14T05:03:42.442Z,4.77
2022-11-14T05:06:11.401Z,5.80
2022-11-14T05:08:39.249Z,4.37
2022-11-14T05:11:08.535Z,5.30
2022-11-14T05:13:36.354Z,6.37
2022-11-14T05:16:04.211Z,5.20
2022-11-14T05:18:32.603Z,5.33
2022-11-14T05:21:01.127Z,6.00
2022-11-14T05:23:29.294Z,5.60
2022-11-14T05:26:01.639Z,6.20
2022-11-14T05:28:31.659Z,5.70
2022-11-14T05:31:03.321Z,5.80
2022-11-14T05:33:31.276Z,5.07
2022-11-14T05:36:03.565Z,4.83
2022-11-14T05:38:31.709Z,5.53
2022-11-14T05:40:59.838Z,4.50
2022-11-14T05:43:31.808Z,4.60
2022-11-14T05:46:01.457Z,5.20
2022-11-14T05:48:30.261Z,4.60
2022-11-14T05:50:59.030Z,4.77
2022-11-14T05:53:28.087Z,5.47
2022-11-14T05:56:01.152Z,5.80
2022-11-14T05:58:29.593Z,5.47
2022-11-14T06:01:05.167Z,6.13
2022-11-14T06:03:34.259Z,4.73
2022-11-14T06:06:03.145Z,6.60
2022-11-14T06:08:32.167Z,5.03
2022-11-14T06:11:04.489Z,6.53
2022-11-14T06:13:32.341Z,4.67
2022-11-14T06:16:01.714Z,5.17
2022-11-14T06:18:32.091Z,5.17
2022-11-14T06:21:01.060Z,4.30
2022-11-14T06:23:29.444Z,4.80
2022-11-14T06:26:00.947Z,4.93
2022-11-14T06:28:29.172Z,5.97
2022-11-14T06:31:00.768Z,5.27
2022-11-14T06:33:30.605Z,4.43
2022-11-14T06:36:00.105Z,4.67
2022-11-14T06:38:28.722Z,5.07
2022-11-14T06:41:03.409Z,4.60
2022-11-14T06:43:34.219Z,4.07
2022-11-14T06:46:02.095Z,4.83
2022-11-14T06:48:32.137Z,5.23
2022-11-14T06:51:01.858Z,5.50
2022-11-14T06:53:31.650Z,4.40
2022-11-14T06:56:00.908Z,4.30
2022-11-14T06:58:30.055Z,4.60
2022-11-14T07:00:58.508Z,4.67
2022-11-14T07:03:26.406Z,4.60
2022-11-14T07:05:58.521Z,4.30
2022-11-14T07:08:26.436Z,4.23
2022-11-14T07:10:54.532Z,4.53
2022-11-14T07:13:22.356Z,4.53
2022-11-14T07:15:53.987Z,4.80
2022-11-14T07:18:22.164Z,4.43
2022-11-14T07:20:49.988Z,4.50
2022-11-14T07:23:22.852Z,5.23
2022-11-14T07:25:51.099Z,4.63
2022-11-14T07:28:19.073Z,4.93
2022-11-14T07:30:46.955Z,3.97
2022-11-14T07:33:14.773Z,5.60
2022-11-14T07:35:42.623Z,5.00
2022-11-14T07:38:10.439Z,4.43
2022-11-14T07:40:39.598Z,4.50
2022-11-14T07:43:07.454Z,4.60
2022-11-14T07:45:35.437Z,5.30
2022-11-14T07:48:03.469Z,6.67
2022-11-14T07:50:31.698Z,4.73
2022-11-14T07:52:59.520Z,4.47
2022-11-14T07:55:27.333Z,4.33
2022-11-14T07:57:56.856Z,5.90
2022-11-14T08:00:24.689Z,4.43
2022-11-14T08:02:52.531Z,5.93
2022-11-14T08:05:20.434Z,5.20
2022-11-14T08:07:48.344Z,4.47
2022-11-14T08:10:17.712Z,5.03
2022-11-14T08:12:46.399Z,5.43
2022-11-14T08:15:15.787Z,5.70
2022-11-14T08:17:43.602Z,4.77
2022-11-14T08:20:12.322Z,5.43
2022-11-14T08:22:40.151Z,4.80
2022-11-14T08:25:08.772Z,4.57
2022-11-14T08:27:36.625Z,5.33
2022-11-14T08:30:05.194Z,5.00
2022-11-14T08:32:34.443Z,4.83
2022-11-14T08:35:02.298Z,4.00
2022-11-14T08:37:30.116Z,4.30
2022-11-14T08:39:58.004Z,4.47
2022-11-14T08:42:25.944Z,5.10
2022-11-14T08:44:53.801Z,3.93
2022-11-14T08:47:21.630Z,5.00
2022-11-14T08:49:50.820Z,5.23
2022-11-14T08:52:18.650Z,4.60
2022-11-14T08:54:46.487Z,4.50
2022-11-14T08:57:15.316Z,4.63
2022-11-14T08:59:43.228Z,4.20
2022-11-14T09:02:11.717Z,4.47
2022-11-14T09:04:39.580Z,4.47
2022-11-14T09:07:08.866Z,5.03
2022-11-14T09:09:36.751Z,3.97
2022-11-14T09:12:04.909Z,4.80
2022-11-14T09:14:32.769Z,4.57
2022-11-14T09:17:05.501Z,4.00
2022-11-14T09:19:33.844Z,4.97
2022-11-14T09:22:01.675Z,4.50
2022-11-14T09:24:30.855Z,4.87
2022-11-14T09:26:58.729Z,5.13
2022-11-14T09:29:26.574Z,4.60
2022-11-14T09:31:55.134Z,4.77
2022-11-14T09:34:23.086Z,4.73
2022-11-14T09:36:50.902Z,4.50
2022-11-14T09:39:18.961Z,4.60
2022-11-14T09:42:07.101Z,4.40
2022-11-14T09:44:50.992Z,4.30
2022-11-14T09:47:23.538Z,4.17
2022-11-14T09:49:54.772Z,4.30
2022-11-14T09:52:29.928Z,4.47
2022-11-14T09:55:00.079Z,4.33
2022-11-14T09:57:30.090Z,4.03
2022-11-14T09:59:58.065Z,4.20
2022-11-14T10:02:37.234Z,4.50
2022-11-14T10:05:18.796Z,3.87
2022-11-14T10:07:58.771Z,3.87
2022-11-14T10:10:39.148Z,3.63
2022-11-14T10:13:18.521Z,6.20
2022-11-14T10:15:54.357Z,3.60
2022-11-14T10:18:36.721Z,4.40
2022-11-14T10:21:15.848Z,5.33
2022-11-14T10:23:53.007Z,4.37
2022-11-14T10:26:30.030Z,4.00
2022-11-14T10:29:28.510Z,4.40
2022-11-14T10:32:06.154Z,4.33
2022-11-14T10:34:41.685Z,4.37
2022-11-14T10:37:18.518Z,3.90
2022-11-14T10:39:51.128Z,8.80
2022-11-14T10:42:24.558Z,4.33
2022-11-14T10:45:02.121Z,3.90
2022-11-14T10:47:37.784Z,4.13
2022-11-14T10:50:17.016Z,3.90
2022-11-14T10:52:46.681Z,4.47
2022-11-14T10:55:17.836Z,4.13
2022-11-14T10:57:47.307Z,3.67
2022-11-14T11:00:19.446Z,3.70
2022-11-14T11:02:53.245Z,4.07
2022-11-14T11:05:23.033Z,3.17
2022-11-14T11:08:36.307Z,5.47
2022-11-14T11:11:18.069Z,3.60
2022-11-14T11:13:54.040Z,4.20
2022-11-14T11:16:26.316Z,3.50
2022-11-14T11:18:54.499Z,5.27
2022-11-14T11:21:24.007Z,3.57
2022-11-14T11:23:54.068Z,3.93
2022-11-14T11:26:24.412Z,4.33
2022-11-14T11:29:05.168Z,3.43
2022-11-14T11:31:51.620Z,3.43
2022-11-14T11:34:26.269Z,3.40
2022-11-14T11:36:58.938Z,3.77
2022-11-14T11:39:30.835Z,3.60
2022-11-14T11:42:09.399Z,3.97
2022-11-14T11:44:41.810Z,3.87
2022-11-14T11:47:15.386Z,4.63
2022-11-14T11:49:53.027Z,3.80
2022-11-14T11:52:31.280Z,3.43
2022-11-14T11:55:04.412Z,4.20
2022-11-14T11:57:35.792Z,4.17
2022-11-14T12:00:08.295Z,3.47
2022-11-14T12:02:46.384Z,3.60
2022-11-14T12:05:19.665Z,2.93
2022-11-14T12:07:55.951Z,3.30
2022-11-14T12:10:27.613Z,3.53
2022-11-14T12:13:23.196Z,3.40
2022-11-14T12:16:08.909Z,3.63
2022-11-14T12:19:02.814Z,2.77
2022-11-14T12:21:52.011Z,3.63
2022-11-14T12:24:57.764Z,3.10
2022-11-14T12:27:38.779Z,4.20
2022-11-14T12:30:14.809Z,3.00
2022-11-14T12:32:46.361Z,2.90
2022-11-14T12:35:21.516Z,3.83
2022-11-14T12:37:55.556Z,3.50
2022-11-14T12:40:30.445Z,3.17
2022-11-14T12:42:59.896Z,4.70
2022-11-14T12:46:00.005Z,3.37
2022-11-14T12:48:33.719Z,3.13
2022-11-14T12:51:04.955Z,3.40
2022-11-14T12:53:43.388Z,3.07
2022-11-14T12:56:31.273Z,3.20
2022-11-14T12:59:34.851Z,3.63
2022-11-14T13:02:23.538Z,4.43
2022-11-14T13:05:10.325Z,3.40
2022-11-14T13:07:50.306Z,3.20
2022-11-14T13:10:27.893Z,3.30
2022-11-14T13:13:18.359Z,3.30
2022-11-14T13:16:09.938Z,4.07
2022-11-14T13:19:08.545Z,3.00
2022-11-14T13:21:48.683Z,3.73
2022-11-14T13:24:20.033Z,2.80
2022-11-14T13:26:53.182Z,4.23
2022-11-14T13:29:49.934Z,4.53
2022-11-14T13:33:06.160Z,3.50
2022-11-14T13:35:52.906Z,3.13
2022-11-14T13:39:03.108Z,5.17
2022-11-14T13:42:02.544Z,4.80
2022-11-14T13:44:58.937Z,2.80
2022-11-14T13:48:02.856Z,2.83
2022-11-14T13:50:33.091Z,3.97
2022-11-14T13:53:01.215Z,3.27
2022-11-14T13:55:37.683Z,3.77
2022-11-14T13:58:18.403Z,3.07
2022-11-14T14:01:01.652Z,3.73
2022-11-14T14:03:48.237Z,3.33
2022-11-14T14:06:39.621Z,3.20
2022-11-14T14:09:26.455Z,3.53
2022-11-14T14:12:15.784Z,3.00
2022-11-14T14:15:04.132Z,3.03
2022-11-14T14:17:38.849Z,2.70
2022-11-14T14:20:20.862Z,3.43
2022-11-14T14:22:57.164Z,3.33
2022-11-14T14:25:30.451Z,2.70
2022-11-14T14:28:07.106Z,2.77
2022-11-14T14:30:36.361Z,3.23
2022-11-14T14:33:11.896Z,3.47
2022-11-14T14:35:41.092Z,2.97
2022-11-14T14:38:13.271Z,3.77
2022-11-14T14:40:43.104Z,3.77
2022-11-14T14:43:23.207Z,2.80
2022-11-14T14:45:54.864Z,3.10
2022-11-14T14:48:26.842Z,3.27
2022-11-14T14:50:56.980Z,3.60
2022-11-14T14:53:27.543Z,4.60
2022-11-14T14:55:58.004Z,2.83
2022-11-14T14:58:29.613Z,2.30
2022-11-14T15:01:01.405Z,3.80
2022-11-14T15:03:36.721Z,4.90
2022-11-14T15:06:07.616Z,3.03
2022-11-14T15:08:38.242Z,4.17
2022-11-14T15:11:07.908Z,3.57
2022-11-14T15:13:38.581Z,3.47
2022-11-14T15:16:09.034Z,2.80
2022-11-14T15:18:37.034Z,2.37
2022-11-14T15:21:09.861Z,4.23
2022-11-14T15:23:39.382Z,3.83
2022-11-14T15:26:14.595Z,3.07
2022-11-14T15:28:42.479Z,3.30
2022-11-14T15:31:19.264Z,2.70
2022-11-14T15:34:00.777Z,3.00
2022-11-14T15:36:28.649Z,2.30
2022-11-14T15:39:01.104Z,3.03
2022-11-14T15:41:30.608Z,2.50
2022-11-14T15:44:02.712Z,2.83
2022-11-14T15:46:41.178Z,3.10
2022-11-14T15:49:17.593Z,2.57
2022-11-14T15:51:48.009Z,3.27
2022-11-14T15:54:28.109Z,2.40
2022-11-14T15:56:57.728Z,2.50
2022-11-14T15:59:26.418Z,2.50
2022-11-14T16:02:00.198Z,2.50
2022-11-14T16:04:31.914Z,2.40
2022-11-14T16:06:59.801Z,3.40
2022-11-14T16:09:27.696Z,3.00
2022-11-14T16:11:55.522Z,2.93
2022-11-14T16:14:23.351Z,2.30
2022-11-14T16:16:51.195Z,2.80
2022-11-14T16:19:21.873Z,2.70
2022-11-14T16:21:49.957Z,2.80
2022-11-14T16:24:20.119Z,2.40
2022-11-14T16:26:47.995Z,2.90
2022-11-14T16:29:16.453Z,3.10
2022-11-14T16:31:44.745Z,2.30
2022-11-14T16:34:17.629Z,2.30
2022-11-14T16:36:48.486Z,2.37
2022-11-14T16:39:16.555Z,3.37
2022-11-14T16:41:44.398Z,3.43
2022-11-14T16:44:16.583Z,3.03
2022-11-14T16:46:45.153Z,3.20
2022-11-14T16:49:15.124Z,3.40
2022-11-14T16:51:48.469Z,2.70
2022-11-14T16:54:19.174Z,3.23
2022-11-14T16:56:47.174Z,2.60
2022-11-14T16:59:15.318Z,2.83
2022-11-14T17:01:43.703Z,2.20
2022-11-14T17:04:11.616Z,2.90
2022-11-14T17:06:39.658Z,3.20
2022-11-14T17:09:07.827Z,3.13
2022-11-14T17:11:36.992Z,2.33
2022-11-14T17:14:05.057Z,3.00
2022-11-14T17:16:32.929Z,2.30
2022-11-14T17:19:00.951Z,3.83
2022-11-14T17:21:28.789Z,2.63
2022-11-14T17:23:56.945Z,3.60
2022-11-14T17:26:25.174Z,2.77
2022-11-14T17:28:54.540Z,2.43
2022-11-14T17:31:22.457Z,3.57
2022-11-14T17:33:54.102Z,2.23
2022-11-14T17:36:22.846Z,2.70
2022-11-14T17:38:50.684Z,2.70
2022-11-14T17:41:18.937Z,2.50
2022-11-14T17:43:46.822Z,3.00
2022-11-14T17:46:16.565Z,2.57
2022-11-14T17:48:44.647Z,3.57
2022-11-14T17:51:14.108Z,2.60
2022-11-14T17:53:42.581Z,2.50
2022-11-14T17:56:14.716Z,2.40
2022-11-14T17:58:43.111Z,2.43
2022-11-14T18:01:12.576Z,2.83
2022-11-14T18:03:42.072Z,4.20
2022-11-14T18:06:11.481Z,3.17
2022-11-14T18:08:39.443Z,2.50
2022-11-14T18:11:09.882Z,6.53
2022-11-14T18:13:38.270Z,2.80
2022-11-14T18:16:08.992Z,2.80
2022-11-14T18:18:37.382Z,3.53
2022-11-14T18:21:11.817Z,4.87
2022-11-14T18:23:39.701Z,3.03
2022-11-14T18:26:11.582Z,2.67
2022-11-14T18:28:39.414Z,2.73
2022-11-14T18:31:10.557Z,2.73
2022-11-14T18:33:38.875Z,4.17
2022-11-14T18:36:09.716Z,3.03
2022-11-14T18:38:38.970Z,3.17
2022-11-14T18:41:09.244Z,3.20
2022-11-14T18:43:37.115Z,3.60
2022-11-14T18:46:06.696Z,3.47
2022-11-14T18:48:34.759Z,3.30
2022-11-14T18:51:02.979Z,2.80
2022-11-14T18:53:34.858Z,3.00
2022-11-14T18:56:06.529Z,3.20
2022-11-14T18:58:35.989Z,3.20
2022-11-14T19:01:10.656Z,2.90
2022-11-14T19:03:38.719Z,3.67
2022-11-14T19:06:08.225Z,3.60
2022-11-14T19:08:36.167Z,3.43
2022-11-14T19:11:07.390Z,3.30
2022-11-14T19:13:35.436Z,3.80
2022-11-14T19:16:03.908Z,2.33
2022-11-14T19:18:32.436Z,3.53
2022-11-14T19:21:01.665Z,2.80
2022-11-14T19:23:31.373Z,3.47
2022-11-14T19:26:00.730Z,3.10
2022-11-14T19:28:30.293Z,2.90
2022-11-14T19:31:02.911Z,3.07
2022-11-14T19:33:31.380Z,3.50
2022-11-14T19:35:59.661Z,2.80
2022-11-14T19:38:27.538Z,3.90
2022-11-14T19:40:55.377Z,2.80
2022-11-14T19:43:25.281Z,3.27
2022-11-14T19:45:56.042Z,2.90
2022-11-14T19:48:24.508Z,3.03
2022-11-14T19:51:00.321Z,2.77
2022-11-14T19:53:28.469Z,2.80
2022-11-14T19:56:01.065Z,3.50
2022-11-14T19:58:28.966Z,2.70
2022-11-14T20:01:03.164Z,3.83
2022-11-14T20:03:31.439Z,2.80
2022-11-14T20:05:59.985Z,2.77
2022-11-14T20:08:28.254Z,2.90
2022-11-14T20:11:00.345Z,2.77
2022-11-14T20:13:31.623Z,3.17
2022-11-14T20:15:59.876Z,2.63
2022-11-14T20:18:30.241Z,2.53
2022-11-14T20:21:02.894Z,3.90
2022-11-14T20:23:31.190Z,4.00
2022-11-14T20:25:59.500Z,3.23
2022-11-14T20:28:27.799Z,3.70
2022-11-14T20:30:55.887Z,2.90
2022-11-14T20:33:23.864Z,2.93
2022-11-14T20:35:53.210Z,3.43
2022-11-14T20:38:21.197Z,2.43
2022-11-14T20:40:55.541Z,3.50
2022-11-14T20:43:23.576Z,4.40
2022-11-14T20:45:58.951Z,3.30
2022-11-14T20:48:27.939Z,2.90
2022-11-14T20:51:04.475Z,3.97
2022-11-14T20:53:33.273Z,3.63
2022-11-14T20:56:02.118Z,3.90
2022-11-14T20:58:30.186Z,3.13
2022-11-14T21:00:58.555Z,3.57
2022-11-14T21:03:27.039Z,3.40
2022-11-14T21:05:54.925Z,3.80
2022-11-14T21:08:24.189Z,5.40
2022-11-14T21:10:58.212Z,4.27
2022-11-14T21:13:43.620Z,2.50
2022-11-14T21:16:13.246Z,3.60
2022-11-14T21:18:45.285Z,3.53
2022-11-14T21:21:17.816Z,3.13
2022-11-14T21:23:48.150Z,3.97
2022-11-14T21:26:18.057Z,2.93
2022-11-14T21:28:48.002Z,3.47
2022-11-14T21:31:21.065Z,3.03
2022-11-14T21:33:50.119Z,3.37
2022-11-14T21:39:07.952Z,3.10
2022-11-14T21:41:35.821Z,5.03
2022-11-14T21:44:04.682Z,3.30
2022-11-14T21:46:32.599Z,3.90
2022-11-14T21:49:00.479Z,3.57
2022-11-14T21:51:29.528Z,3.30
2022-11-14T21:53:59.324Z,3.53
2022-11-14T21:56:29.880Z,3.73
2022-11-14T22:02:11.176Z,3.30
2022-11-14T22:04:39.328Z,5.90
2022-11-14T22:07:08.643Z,3.20
2022-11-14T22:09:39.971Z,4.47
2022-11-14T22:12:12.019Z,3.40
2022-11-14T22:14:39.983Z,3.97
2022-11-14T22:17:09.160Z,4.00
2022-11-14T22:19:37.040Z,3.37
2022-11-14T22:22:04.935Z,3.47
2022-11-14T22:24:32.863Z,4.03
2022-11-14T22:27:00.749Z,3.30
2022-11-14T22:29:28.605Z,3.13
2022-11-14T22:31:56.850Z,4.53
2022-11-14T22:34:26.073Z,3.53
2022-11-14T22:36:53.919Z,4.30
2022-11-14T22:39:21.763Z,4.40
2022-11-14T22:41:49.819Z,3.47
2022-11-14T22:44:17.675Z,3.23
2022-11-14T22:46:45.544Z,3.67
2022-11-14T22:49:17.141Z,3.40
2022-11-14T22:51:49.089Z,3.73
2022-11-14T22:54:16.964Z,3.20
2022-11-14T22:56:44.858Z,3.13
2022-11-14T22:59:12.731Z,3.30
2022-11-14T23:01:40.803Z,4.13
2022-11-14T23:04:09.775Z,4.30
2022-11-14T23:06:37.723Z,2.70
2022-11-14T23:09:07.952Z,3.77
2022-11-14T23:11:35.820Z,3.63
2022-11-14T23:14:04.067Z,4.33
2022-11-14T23:16:33.941Z,3.80
2022-11-14T23:19:03.843Z,2.60
2022-11-14T23:21:37.448Z,3.10
2022-11-14T23:24:09.419Z,3.90
2022-11-14T23:26:37.359Z,3.30
2022-11-14T23:29:05.265Z,5.77
2022-11-14T23:31:33.123Z,3.53
2022-11-14T23:34:01.021Z,5.33
2022-11-14T23:36:28.871Z,3.50
2022-11-14T23:38:56.981Z,3.90
2022-11-14T23:41:26.639Z,3.73
2022-11-14T23:43:54.613Z,5.03
2022-11-14T23:46:22.493Z,5.37
2022-11-14T23:48:50.741Z,4.33
2022-11-14T23:51:18.594Z,4.80
2022-11-14T23:53:46.869Z,4.50
2022-11-14T23:56:15.648Z,3.37
2022-11-14T23:58:45.099Z,3.83
